Flight Number: EUR1154 Duration: 1:00
Departure: Budapest Ferihegy (LHBP) at 08:15 Distance: 343 Nm
Arrival: Skopje Airport (LWSK) at 09:15 Equipment: A321

Weather Information
Budapest / Ferihegy, Hungary (LHBP) 47-26N 019-16E 185M Sep 21, 2017 - 10:00 AM EDT / 2017.09.21 1400 UTC
Wind: from the WNW (300 degrees) at 21 MPH (18 KT):0
Visibility: greater than 7 mile(s):0
Sky conditions: overcast Weather: rain Temperature: 53 F (12 C) Dew Point: 50 F (10 C) Relative Humidity: 87% Pressure (altimeter): 29.91 in. Hg (1013 hPa)
ob: LHBP 211400Z 30018KT 9999 RA FEW005 SCT022 OVC062 12/10 Q1013 TEMPO -RA cycle: 14
Sunrise: 04:32 Sunset: 16:39 (UTC)

Skopje-Petrovec, Macedonia, The Republic of (LWSK) 41-58N 021-39E 239M Sep 21, 2017 - 10:00 AM EDT / 2017.09.21 1400 UTC
Wind: from the N (360 degrees) at 14 MPH (12 KT):0
Visibility: greater than 7 mile(s):0
Sky conditions: mostly cloudy Temperature: 68 F (20 C) Dew Point: 37 F (3 C) Relative Humidity: 32% Pressure (altimeter): 29.94 in. Hg (1014 hPa)
ob: LWSK 211400Z 36012KT 9999 BKN056 20/03 Q1014 NOSIG cycle: 14
Sunrise: 04:23 Sunset: 16:29 (UTC)

TAF:2017/09/21 12:36 TAF LWSK 211130Z 2112/2212 35010KT 9999 FEW040 TEMPO 2112/2118 34014G24KT SHRA FEW033CB BKN040

Previous Pireps for this route
Date Aircraft Flight time Fuel used Landing rate On time
2012-09-09A32101.34-9115-1105No
2012-09-28A32101.1610170-273Yes
2012-10-26A32101.4910150-574Charter
2013-02-09A32101.2411588-164Yes
2013-08-19A3211.0080000No
2013-09-30A32101.3511762-273No
2014-05-12A32101.168038-238Yes
2014-11-15A3211.1377700Yes
2014-11-15A3211.1377700No
2015-04-02A32101.107459-425No
2016-05-21A3211,0060000Yes
2016-12-27A3211.1189460No
(pireps marked green are flown by you)

Route map